createdAt,value
2023-03-17T00:00:54.635Z,8.35
2023-03-17T00:03:27.729Z,9.40
2023-03-17T00:05:59.851Z,9.20
2023-03-17T00:08:34.743Z,8.27
2023-03-17T00:11:10.164Z,9.23
2023-03-17T00:13:40.512Z,8.43
2023-03-17T00:16:19.325Z,9.00
2023-03-17T00:18:51.184Z,10.10
2023-03-17T00:21:32.855Z,11.30
2023-03-17T00:24:03.248Z,15.05
2023-03-17T00:26:33.662Z,17.35
2023-03-17T00:29:05.691Z,20.33
2023-03-17T00:31:36.692Z,25.63
2023-03-17T00:34:08.218Z,19.92
2023-03-17T00:36:38.751Z,20.38
2023-03-17T00:39:17.633Z,17.67
2023-03-17T00:44:17.642Z,17.85
2023-03-17T00:46:47.834Z,18.67
2023-03-17T00:49:21.433Z,20.23
2023-03-17T00:51:52.282Z,22.30
2023-03-17T00:54:22.849Z,24.25
2023-03-17T00:56:53.091Z,22.70
2023-03-17T00:59:27.936Z,21.15
2023-03-17T01:01:58.685Z,14.55
2023-03-17T01:04:29.010Z,15.55
2023-03-17T01:06:59.483Z,13.63
2023-03-17T01:09:30.939Z,19.73
2023-03-17T01:12:01.692Z,16.02
2023-03-17T01:14:31.892Z,14.20
2023-03-17T01:17:02.344Z,14.60
2023-03-17T01:19:32.787Z,11.38
2023-03-17T01:22:03.337Z,11.60
2023-03-17T01:24:33.473Z,13.63
2023-03-17T01:27:05.115Z,10.77
2023-03-17T01:29:35.289Z,23.73
2023-03-17T01:35:46.183Z,15.43
2023-03-17T01:38:16.410Z,14.77
2023-03-17T01:40:51.783Z,12.40
2023-03-17T01:43:30.900Z,12.73
2023-03-17T01:46:22.720Z,12.43
2023-03-17T01:49:17.517Z,13.23
2023-03-17T01:51:57.686Z,11.25
2023-03-17T01:54:45.284Z,10.88
2023-03-17T01:57:23.427Z,12.35
2023-03-17T02:00:10.174Z,10.52
2023-03-17T02:02:46.476Z,9.90
2023-03-17T02:05:27.770Z,10.43
2023-03-17T02:07:57.926Z,10.23
2023-03-17T02:10:29.943Z,8.95
2023-03-17T02:13:05.675Z,10.10
2023-03-17T02:15:41.601Z,7.68
2023-03-17T02:18:12.875Z,8.45
2023-03-17T02:20:46.744Z,10.02
2023-03-17T02:23:22.564Z,9.18
2023-03-17T02:25:54.226Z,7.35
2023-03-17T02:28:30.123Z,6.82
2023-03-17T02:31:00.359Z,7.15
2023-03-17T02:33:30.799Z,5.28
2023-03-17T02:36:01.077Z,6.13
2023-03-17T02:38:31.963Z,5.88
2023-03-17T02:41:02.070Z,6.63
2023-03-17T02:43:32.506Z,6.78
2023-03-17T02:46:02.698Z,5.57
2023-03-17T02:48:35.029Z,4.40
2023-03-17T02:51:05.587Z,3.50
2023-03-17T02:53:35.783Z,3.55
2023-03-17T02:56:06.358Z,3.20
2023-03-17T02:58:36.634Z,2.88
2023-03-17T03:01:06.891Z,2.75
2023-03-17T03:03:37.364Z,2.58
2023-03-17T03:06:07.778Z,2.60
2023-03-17T03:08:37.969Z,2.83
2023-03-17T03:11:08.170Z,2.55
2023-03-17T03:13:39.140Z,2.78
2023-03-17T03:16:09.436Z,3.10
2023-03-17T03:18:39.531Z,2.70
2023-03-17T03:21:09.929Z,2.83
2023-03-17T03:23:40.035Z,2.83
2023-03-17T03:26:10.195Z,2.78
2023-03-17T03:28:40.350Z,2.60
2023-03-17T03:31:11.429Z,2.70
2023-03-17T03:33:42.432Z,1.85
2023-03-17T03:36:13.644Z,3.03
2023-03-17T03:38:43.781Z,2.03
2023-03-17T03:41:14.464Z,2.85
2023-03-17T03:43:44.650Z,2.25
2023-03-17T03:46:15.869Z,2.50
2023-03-17T03:48:46.183Z,2.45
2023-03-17T03:51:16.359Z,2.10
2023-03-17T03:53:48.443Z,2.00
2023-03-17T03:56:18.507Z,2.30
2023-03-17T03:58:48.911Z,2.72
2023-03-17T04:01:19.773Z,2.20
2023-03-17T04:03:49.991Z,2.97
2023-03-17T04:06:20.227Z,2.47
2023-03-17T04:08:50.445Z,2.47
2023-03-17T04:11:20.644Z,2.88
2023-03-17T04:13:50.796Z,2.75
2023-03-17T04:16:20.981Z,2.78
2023-03-17T04:18:51.414Z,3.03
2023-03-17T04:21:21.934Z,2.22
2023-03-17T04:23:52.106Z,3.03
2023-03-17T04:26:23.320Z,2.78
2023-03-17T04:28:53.463Z,2.95
2023-03-17T04:31:23.984Z,3.85
2023-03-17T04:33:54.115Z,3.60
2023-03-17T04:36:24.967Z,3.00
2023-03-17T04:38:55.206Z,5.30
2023-03-17T04:41:25.362Z,4.03
2023-03-17T04:43:55.512Z,4.22
2023-03-17T04:46:25.809Z,3.72
2023-03-17T04:48:57.483Z,6.07
2023-03-17T04:51:28.101Z,4.20
2023-03-17T04:53:58.358Z,4.18
2023-03-17T04:56:31.212Z,4.47
2023-03-17T04:59:02.483Z,6.80
2023-03-17T05:01:32.621Z,4.38
2023-03-17T05:04:02.718Z,4.82
2023-03-17T05:06:32.963Z,5.95
2023-03-17T05:09:04.206Z,6.10
2023-03-17T05:11:34.428Z,5.35
2023-03-17T05:14:04.575Z,5.03
2023-03-17T05:16:34.795Z,5.65
2023-03-17T05:19:06.491Z,7.13
2023-03-17T05:21:36.719Z,6.10
2023-03-17T05:24:07.037Z,6.72
2023-03-17T05:26:37.511Z,6.70
2023-03-17T05:29:09.133Z,6.47
2023-03-17T05:31:39.293Z,6.93
2023-03-17T05:34:09.467Z,7.60
2023-03-17T05:36:39.782Z,7.03
2023-03-17T05:39:14.008Z,9.77
2023-03-17T05:41:44.677Z,9.05
2023-03-17T05:44:14.749Z,7.13
2023-03-17T05:46:44.951Z,6.70
2023-03-17T05:49:15.459Z,6.65
2023-03-17T05:51:45.560Z,7.30
2023-03-17T05:54:15.839Z,6.65
2023-03-17T05:56:46.898Z,5.85
2023-03-17T05:59:18.630Z,6.40
2023-03-17T06:01:48.795Z,8.55
2023-03-17T06:04:18.876Z,5.57
2023-03-17T06:06:49.041Z,6.03
2023-03-17T06:09:19.450Z,6.72
2023-03-17T06:11:49.640Z,6.93
2023-03-17T06:14:19.781Z,7.30
2023-03-17T06:16:51.016Z,7.97
2023-03-17T06:19:21.185Z,6.85
2023-03-17T06:21:51.237Z,6.95
2023-03-17T06:24:21.851Z,8.88
2023-03-17T06:26:53.056Z,12.10
2023-03-17T06:29:24.873Z,8.43
2023-03-17T06:31:56.088Z,7.88
2023-03-17T06:34:27.686Z,8.88
2023-03-17T06:36:58.743Z,8.13
2023-03-17T06:39:29.115Z,8.45
2023-03-17T06:41:59.219Z,7.05
2023-03-17T06:44:29.349Z,8.50
2023-03-17T06:46:59.491Z,7.07
2023-03-17T06:49:29.650Z,8.75
2023-03-17T06:51:59.806Z,6.05
2023-03-17T06:54:29.945Z,6.28
2023-03-17T06:57:00.152Z,6.13
2023-03-17T06:59:30.887Z,7.18
2023-03-17T07:02:01.172Z,6.85
2023-03-17T07:04:32.094Z,7.68
2023-03-17T07:07:03.336Z,8.18
2023-03-17T07:09:37.413Z,7.43
2023-03-17T07:12:07.908Z,8.60
2023-03-17T07:14:41.915Z,7.60
2023-03-17T07:17:13.746Z,7.88
2023-03-17T07:19:44.014Z,7.18
2023-03-17T07:22:14.168Z,7.15
2023-03-17T07:24:45.056Z,7.25
2023-03-17T07:27:16.594Z,8.18
2023-03-17T07:29:46.924Z,9.00
2023-03-17T07:32:17.285Z,8.13
2023-03-17T07:34:47.394Z,11.57
2023-03-17T07:37:17.797Z,9.32
2023-03-17T07:39:48.447Z,9.32
2023-03-17T07:42:18.839Z,10.18
2023-03-17T07:44:49.026Z,8.23
2023-03-17T07:47:19.947Z,7.93
2023-03-17T07:49:50.205Z,10.40
2023-03-17T07:52:20.582Z,8.73
2023-03-17T07:54:52.401Z,9.25
2023-03-17T07:57:22.905Z,10.40
2023-03-17T07:59:53.209Z,12.32
2023-03-17T08:02:23.422Z,12.65
2023-03-17T08:04:54.217Z,9.82
2023-03-17T08:07:24.786Z,8.48
2023-03-17T08:09:55.181Z,9.57
2023-03-17T08:12:25.746Z,14.15
2023-03-17T08:14:56.063Z,12.38
2023-03-17T08:17:27.574Z,9.20
2023-03-17T08:19:57.772Z,9.38
2023-03-17T08:22:27.938Z,11.55
2023-03-17T08:24:58.867Z,10.57
2023-03-17T08:27:29.080Z,10.13
2023-03-17T08:29:59.262Z,10.18
2023-03-17T08:32:29.463Z,10.35
2023-03-17T08:35:00.768Z,12.05
2023-03-17T08:37:30.951Z,12.45
2023-03-17T08:40:01.520Z,9.30
2023-03-17T08:42:31.973Z,11.05
2023-03-17T08:45:02.143Z,11.27
2023-03-17T08:47:33.302Z,8.65
2023-03-17T08:50:07.032Z,10.07
2023-03-17T08:52:38.094Z,11.65
2023-03-17T08:55:09.202Z,9.07
2023-03-17T08:57:39.725Z,15.43
2023-03-17T09:00:11.645Z,10.85
2023-03-17T09:02:43.824Z,12.45
2023-03-17T09:05:16.188Z,11.85
2023-03-17T09:07:47.380Z,11.45
2023-03-17T09:10:22.721Z,12.27
2023-03-17T09:12:53.531Z,10.52
2023-03-17T09:15:23.752Z,10.70
2023-03-17T09:17:54.096Z,9.88
2023-03-17T09:20:24.587Z,9.65
2023-03-17T09:22:54.955Z,8.13
2023-03-17T09:25:26.338Z,11.07
2023-03-17T09:27:56.657Z,8.85
2023-03-17T09:30:27.179Z,8.93
2023-03-17T09:32:57.348Z,9.65
2023-03-17T09:35:28.912Z,8.88
2023-03-17T09:38:00.823Z,10.10
2023-03-17T09:40:36.446Z,7.65
2023-03-17T09:43:29.888Z,11.80
2023-03-17T09:46:22.798Z,7.50
2023-03-17T09:49:07.941Z,7.95
2023-03-17T09:51:38.864Z,8.10
2023-03-17T09:54:22.874Z,7.00
2023-03-17T09:57:16.790Z,6.93
2023-03-17T09:59:55.195Z,8.15
2023-03-17T10:02:34.458Z,7.72
2023-03-17T10:05:14.458Z,6.15
2023-03-17T10:08:30.508Z,6.65
2023-03-17T10:11:19.364Z,6.18
2023-03-17T10:14:04.182Z,4.93
2023-03-17T10:16:46.960Z,7.28
2023-03-17T10:19:40.761Z,6.45
2023-03-17T10:22:22.024Z,4.50
2023-03-17T10:24:57.104Z,3.75
2023-03-17T10:27:28.770Z,5.75
2023-03-17T10:29:58.909Z,4.97
2023-03-17T10:32:32.057Z,5.05
2023-03-17T10:35:02.885Z,4.82
2023-03-17T10:37:36.736Z,5.20
2023-03-17T10:40:11.124Z,5.15
2023-03-17T10:42:53.277Z,5.43
2023-03-17T10:45:38.401Z,3.83
2023-03-17T10:48:14.936Z,4.53
2023-03-17T10:50:49.342Z,6.28
2023-03-17T10:53:28.457Z,4.38
2023-03-17T10:56:09.870Z,6.07
2023-03-17T10:58:51.577Z,5.47
2023-03-17T11:01:28.037Z,5.82
2023-03-17T11:04:02.638Z,4.13
2023-03-17T11:06:39.434Z,5.10
2023-03-17T11:09:11.167Z,4.32
2023-03-17T11:11:49.154Z,4.40
2023-03-17T11:14:20.050Z,5.70
2023-03-17T11:16:56.208Z,5.82
2023-03-17T11:19:48.811Z,3.92
2023-03-17T11:22:56.670Z,4.25
2023-03-17T11:25:28.620Z,4.35
2023-03-17T11:28:20.894Z,4.38
2023-03-17T11:30:50.959Z,5.28
2023-03-17T11:33:42.792Z,4.57
2023-03-17T11:36:18.792Z,3.67
2023-03-17T11:38:58.049Z,4.87
2023-03-17T11:41:46.146Z,4.38
2023-03-17T11:44:42.373Z,3.90
2023-03-17T11:47:38.504Z,4.88
2023-03-17T11:50:41.158Z,4.15
2023-03-17T11:53:59.238Z,5.90
2023-03-17T11:57:01.475Z,4.72
2023-03-17T11:59:46.018Z,5.70
2023-03-17T12:02:20.893Z,5.22
2023-03-17T12:05:02.560Z,4.22
2023-03-17T12:07:41.769Z,3.60
2023-03-17T12:10:38.033Z,4.35
2023-03-17T12:13:40.384Z,4.70
2023-03-17T12:16:26.607Z,4.43
2023-03-17T12:19:08.942Z,5.47
2023-03-17T12:21:46.743Z,3.65
2023-03-17T12:24:26.992Z,5.75
2023-03-17T12:27:06.133Z,4.40
2023-03-17T12:30:08.055Z,5.05
2023-03-17T12:32:46.083Z,6.78
2023-03-17T12:35:22.240Z,5.00
2023-03-17T12:37:53.746Z,6.75
2023-03-17T12:40:41.474Z,4.45
2023-03-17T12:43:24.596Z,5.75
2023-03-17T12:46:22.413Z,5.82
2023-03-17T12:49:11.050Z,5.28
2023-03-17T12:51:54.287Z,5.43
2023-03-17T12:54:34.633Z,6.03
2023-03-17T12:57:13.668Z,6.43
2023-03-17T12:59:46.864Z,6.80
2023-03-17T13:02:39.894Z,5.70
2023-03-17T13:05:15.628Z,5.80
2023-03-17T13:08:08.528Z,5.50
2023-03-17T13:10:51.241Z,6.22
2023-03-17T13:13:36.551Z,5.25
2023-03-17T13:16:27.556Z,7.35
2023-03-17T13:19:25.585Z,6.07
2023-03-17T13:22:05.320Z,7.63
2023-03-17T13:24:48.841Z,7.88
2023-03-17T13:27:48.503Z,8.27
2023-03-17T13:30:26.573Z,6.30
2023-03-17T13:33:23.848Z,7.30
2023-03-17T13:36:08.354Z,9.15
2023-03-17T13:39:18.845Z,10.98
2023-03-17T13:41:50.203Z,8.13
2023-03-17T13:44:38.632Z,5.63
2023-03-17T13:47:28.580Z,7.40
2023-03-17T13:50:07.847Z,6.15
2023-03-17T13:52:55.703Z,5.55
2023-03-17T13:55:36.800Z,6.20
2023-03-17T13:58:11.587Z,6.15
2023-03-17T14:00:47.077Z,6.13
2023-03-17T14:03:29.289Z,6.47
2023-03-17T14:06:04.864Z,6.07
2023-03-17T14:08:56.061Z,6.13
2023-03-17T14:11:36.394Z,4.40
2023-03-17T14:14:33.219Z,3.70
2023-03-17T14:17:19.455Z,4.72
2023-03-17T14:20:06.469Z,4.80
2023-03-17T14:22:45.200Z,6.38
2023-03-17T14:25:38.846Z,5.70
2023-03-17T14:28:15.572Z,5.03
2023-03-17T14:30:55.100Z,4.00
2023-03-17T14:33:33.835Z,6.03
2023-03-17T14:36:08.085Z,4.28
2023-03-17T14:38:45.934Z,4.38
2023-03-17T14:41:30.042Z,4.35
2023-03-17T14:44:01.875Z,4.63
2023-03-17T14:46:37.805Z,3.63
2023-03-17T14:49:21.298Z,3.90
2023-03-17T14:51:58.426Z,4.55
2023-03-17T14:54:33.219Z,4.90
2023-03-17T14:57:08.145Z,4.35
2023-03-17T14:59:41.536Z,4.43
2023-03-17T15:02:28.167Z,4.93
2023-03-17T15:05:27.561Z,5.82
2023-03-17T15:07:57.669Z,4.90
2023-03-17T15:10:31.504Z,5.05
2023-03-17T15:13:04.627Z,5.55
2023-03-17T15:15:38.995Z,6.50
2023-03-17T15:18:14.587Z,6.68
2023-03-17T15:20:45.965Z,5.97
2023-03-17T15:23:25.282Z,7.35
2023-03-17T15:25:57.018Z,4.70
2023-03-17T15:28:31.991Z,5.45
2023-03-17T15:31:13.421Z,4.43
2023-03-17T15:33:43.502Z,4.03
2023-03-17T15:36:31.327Z,5.30
2023-03-17T15:39:03.593Z,5.30
2023-03-17T15:41:33.706Z,5.50
2023-03-17T15:44:05.357Z,5.28
2023-03-17T15:46:35.842Z,6.80
2023-03-17T15:49:11.752Z,6.50
2023-03-17T15:51:41.927Z,6.90
2023-03-17T15:54:15.408Z,4.93
2023-03-17T15:56:45.498Z,4.70
2023-03-17T15:59:15.858Z,5.00
2023-03-17T16:01:46.994Z,5.30
2023-03-17T16:04:18.161Z,5.55
2023-03-17T16:06:49.275Z,6.05
2023-03-17T16:09:19.389Z,5.15
2023-03-17T16:11:52.277Z,5.93
2023-03-17T16:14:22.365Z,5.68
2023-03-17T16:16:52.867Z,6.65
2023-03-17T16:19:25.144Z,6.40
2023-03-17T16:21:55.916Z,5.13
2023-03-17T16:24:27.232Z,6.30
2023-03-17T16:26:58.388Z,6.43
2023-03-17T16:29:28.568Z,5.80
2023-03-17T16:31:58.629Z,7.47
2023-03-17T16:34:28.831Z,6.70
2023-03-17T16:36:59.013Z,6.50
2023-03-17T16:39:29.826Z,6.53
2023-03-17T16:42:01.364Z,5.60
2023-03-17T16:44:32.087Z,5.82
2023-03-17T16:47:02.272Z,8.85
2023-03-17T16:49:32.496Z,7.05
2023-03-17T16:52:02.656Z,7.00
2023-03-17T16:54:33.661Z,6.13
2023-03-17T16:57:06.542Z,6.82
2023-03-17T16:59:37.762Z,5.88
2023-03-17T17:02:18.452Z,4.82
2023-03-17T17:04:48.585Z,7.10
2023-03-17T17:07:18.641Z,6.07
2023-03-17T17:09:48.845Z,6.95
2023-03-17T17:12:18.966Z,7.53
2023-03-17T17:14:52.678Z,6.97
2023-03-17T17:17:23.117Z,7.05
2023-03-17T17:19:53.270Z,6.60
2023-03-17T17:22:23.357Z,7.45
2023-03-17T17:24:53.502Z,6.32
2023-03-17T17:27:23.640Z,7.25
2023-03-17T17:29:53.801Z,9.52
2023-03-17T17:32:26.009Z,7.65
2023-03-17T17:34:56.109Z,5.95
2023-03-17T17:37:26.316Z,8.15
2023-03-17T17:39:56.552Z,6.28
2023-03-17T17:42:26.711Z,6.55
2023-03-17T17:44:56.805Z,7.95
2023-03-17T17:47:26.967Z,7.55
2023-03-17T17:49:59.478Z,7.82
2023-03-17T17:52:29.580Z,7.07
2023-03-17T17:55:01.161Z,5.68
2023-03-17T17:57:31.267Z,5.75
2023-03-17T18:00:01.442Z,8.07
2023-03-17T18:02:31.535Z,7.72
2023-03-17T18:05:01.738Z,7.60
2023-03-17T18:07:32.790Z,6.40
2023-03-17T18:10:03.811Z,5.60
2023-03-17T18:12:34.075Z,8.48
2023-03-17T18:15:05.809Z,7.60
2023-03-17T18:17:36.693Z,8.48
2023-03-17T18:20:10.384Z,9.07
2023-03-17T18:22:41.259Z,7.43
2023-03-17T18:25:14.051Z,8.73
2023-03-17T18:27:45.045Z,7.72
2023-03-17T18:30:25.441Z,6.68
2023-03-17T18:33:00.741Z,8.20
2023-03-17T18:35:31.735Z,6.65
2023-03-17T18:38:02.270Z,6.93
2023-03-17T18:40:33.434Z,7.15
2023-03-17T18:43:03.829Z,8.38
2023-03-17T18:45:34.475Z,7.78
2023-03-17T18:48:04.773Z,7.57
2023-03-17T18:50:34.985Z,7.38
2023-03-17T18:53:05.137Z,9.48
2023-03-17T18:55:35.307Z,6.95
2023-03-17T18:58:06.529Z,11.73
2023-03-17T19:00:37.622Z,9.93
2023-03-17T19:03:07.835Z,11.63
2023-03-17T19:05:38.629Z,8.98
2023-03-17T19:08:08.676Z,10.48
2023-03-17T19:10:38.843Z,8.05
2023-03-17T19:13:10.258Z,10.82
2023-03-17T19:15:42.767Z,7.70
2023-03-17T19:18:12.981Z,8.57
2023-03-17T19:20:43.533Z,10.70
2023-03-17T19:23:13.794Z,10.20
2023-03-17T19:25:46.868Z,9.32
2023-03-17T19:28:18.195Z,8.10
2023-03-17T19:30:51.817Z,8.90
2023-03-17T19:33:22.125Z,11.00
2023-03-17T19:35:58.794Z,10.95
2023-03-17T19:38:29.179Z,11.13
2023-03-17T19:41:00.497Z,12.00
2023-03-17T19:43:40.377Z,11.70
2023-03-17T19:46:12.669Z,10.55
2023-03-17T19:48:42.853Z,12.77
2023-03-17T19:51:15.508Z,10.52
2023-03-17T19:53:46.000Z,8.85
2023-03-17T19:56:16.667Z,9.70
2023-03-17T19:58:47.512Z,9.93
2023-03-17T20:01:18.252Z,11.07
2023-03-17T20:03:48.735Z,14.05
2023-03-17T20:06:18.932Z,10.88
2023-03-17T20:08:49.071Z,11.93
2023-03-17T20:11:19.622Z,8.68
2023-03-17T20:13:50.923Z,11.25
2023-03-17T20:16:21.162Z,12.00
2023-03-17T20:18:51.522Z,14.32
2023-03-17T20:21:21.725Z,11.32
2023-03-17T20:23:53.371Z,9.00
2023-03-17T20:26:23.550Z,11.23
2023-03-17T20:28:55.820Z,13.15
2023-03-17T20:31:25.941Z,10.65
2023-03-17T20:33:57.052Z,13.07
2023-03-17T20:36:27.586Z,12.05
2023-03-17T20:38:58.707Z,10.70
2023-03-17T20:41:29.191Z,10.52
2023-03-17T20:43:59.223Z,11.43
2023-03-17T20:46:29.413Z,12.15
2023-03-17T20:48:59.560Z,11.00
2023-03-17T20:51:29.685Z,10.27
2023-03-17T20:54:00.920Z,10.43
2023-03-17T20:56:35.862Z,10.38
2023-03-17T20:59:09.673Z,10.18
2023-03-17T21:01:40.752Z,14.30
2023-03-17T21:04:12.583Z,14.10
2023-03-17T21:06:43.029Z,13.65
2023-03-17T21:09:13.458Z,11.65
2023-03-17T21:11:43.601Z,11.27
2023-03-17T21:14:16.630Z,12.48
2023-03-17T21:16:47.426Z,10.80
2023-03-17T21:19:17.660Z,10.32
2023-03-17T21:21:47.782Z,13.63
2023-03-17T21:24:31.908Z,11.45
2023-03-17T21:27:05.405Z,22.13
2023-03-17T21:29:36.286Z,17.33
2023-03-17T21:32:09.740Z,12.90
2023-03-17T21:34:39.863Z,9.73
2023-03-17T21:37:13.413Z,13.25
2023-03-17T21:39:44.748Z,10.43
2023-03-17T21:42:17.394Z,12.05
2023-03-17T21:44:48.479Z,12.95
2023-03-17T21:47:19.937Z,12.02
2023-03-17T21:49:50.228Z,20.45
2023-03-17T21:52:21.798Z,12.65
2023-03-17T21:54:52.025Z,10.23
2023-03-17T21:57:23.053Z,12.05
2023-03-17T21:59:53.502Z,11.95
2023-03-17T22:02:28.357Z,13.75
2023-03-17T22:04:58.635Z,10.52
2023-03-17T22:07:29.467Z,11.18
2023-03-17T22:10:01.117Z,9.00
2023-03-17T22:12:35.299Z,8.98
2023-03-17T22:15:06.524Z,8.73
2023-03-17T22:17:36.774Z,8.85
2023-03-17T22:20:09.082Z,10.02
2023-03-17T22:22:39.268Z,8.25
2023-03-17T22:25:09.769Z,9.68
2023-03-17T22:27:40.238Z,12.57
2023-03-17T22:30:12.024Z,10.43
2023-03-17T22:32:42.774Z,10.90
2023-03-17T22:35:13.794Z,11.65
2023-03-17T22:37:43.867Z,12.18
2023-03-17T22:40:14.957Z,11.35
2023-03-17T22:42:45.164Z,13.25
2023-03-17T22:45:16.209Z,10.55
2023-03-17T22:47:46.302Z,12.43
2023-03-17T22:50:17.001Z,12.07
2023-03-17T22:52:47.414Z,12.27
2023-03-17T22:55:17.771Z,10.45
2023-03-17T22:57:48.074Z,10.02
2023-03-17T23:00:18.610Z,9.48
2023-03-17T23:02:48.869Z,9.90
2023-03-17T23:05:19.555Z,11.02
2023-03-17T23:07:51.756Z,9.43
2023-03-17T23:10:24.582Z,10.55
2023-03-17T23:12:56.477Z,8.55
2023-03-17T23:15:26.868Z,7.78
2023-03-17T23:17:57.428Z,7.93
2023-03-17T23:20:28.362Z,10.32
2023-03-17T23:22:58.670Z,7.68
2023-03-17T23:25:28.736Z,9.23
2023-03-17T23:27:58.995Z,8.95
2023-03-17T23:30:30.043Z,8.93
2023-03-17T23:33:01.437Z,10.15
2023-03-17T23:35:31.962Z,9.32
2023-03-17T23:38:04.196Z,12.52
2023-03-17T23:40:34.774Z,7.93
2023-03-17T23:43:05.668Z,8.60
2023-03-17T23:45:35.831Z,8.98
2023-03-17T23:48:05.989Z,10.05
2023-03-17T23:50:36.222Z,7.63
2023-03-17T23:53:06.306Z,9.48
2023-03-17T23:55:36.532Z,8.13
2023-03-17T23:58:06.792Z,7.20
